FAUT

K. D. Matanzima Airport

Mthatha, South Africa
METAR FAUT 231400Z 03007KT 9999 SCT030 FEW040TCU 32/15 Q1005
Observed Flight Rules
Feb-23 @ 14:00 UTC (27 minutes ago) Visual Flight Rules
Wind Visibility Clouds
30° at 7 knots 10,000+ meters
  • Scattered at 3,000' AGL
  • Few at 4,000' AGL
Temperatures Readings
Current 32°C / 90°F
Dewpoint 15°C / 59°F
Humidity 36%
Altimeter 29.68" Hg
Pressure 1005 hPa
Elevation 732
METAR FAUT 231400Z 03007KT 9999 SCT030 FEW040TCU 32/15 Q1005
Observed Flight Rules
Feb-23 @ 14:00 UTC
(27 minutes ago)
VFR
Wind Visibility
30° at 7 knots 10,000+ meters
Clouds
  • Scattered at 3,000' AGL
  • Few at 4,000' AGL
Temperature Dewpoint
32°C / 90°F 15°C / 59°F
Humidity Altimeter Pressure
36% 29.68" Hg 1005 hPa